sensor_id;sensor_type;location;lat;lon;timestamp;P1;durP1;ratioP1;P2;durP2;ratioP2
69253;SDS011;56364;41.816;12.448;2023-01-08T00:00:00;38.25;;;14.52;;
69253;SDS011;56364;41.816;12.448;2023-01-08T00:02:27;33.53;;;15.68;;
69253;SDS011;56364;41.816;12.448;2023-01-08T00:04:53;37.60;;;15.70;;
69253;SDS011;56364;41.816;12.448;2023-01-08T00:07:19;34.17;;;15.23;;
69253;SDS011;56364;41.816;12.448;2023-01-08T00:09:45;36.53;;;15.90;;
69253;SDS011;56364;41.816;12.448;2023-01-08T00:12:17;36.88;;;14.85;;
69253;SDS011;56364;41.816;12.448;2023-01-08T00:14:43;31.85;;;15.25;;
69253;SDS011;56364;41.816;12.448;2023-01-08T00:17:09;34.53;;;17.30;;
69253;SDS011;56364;41.816;12.448;2023-01-08T00:19:35;36.42;;;14.68;;
69253;SDS011;56364;41.816;12.448;2023-01-08T00:22:01;34.30;;;15.90;;
69253;SDS011;56364;41.816;12.448;2023-01-08T00:24:27;37.90;;;15.77;;
69253;SDS011;56364;41.816;12.448;2023-01-08T00:26:53;30.90;;;15.50;;
69253;SDS011;56364;41.816;12.448;2023-01-08T00:29:19;37.25;;;16.00;;
69253;SDS011;56364;41.816;12.448;2023-01-08T00:31:45;39.85;;;16.48;;
69253;SDS011;56364;41.816;12.448;2023-01-08T00:34:11;38.88;;;15.90;;
69253;SDS011;56364;41.816;12.448;2023-01-08T00:36:37;33.13;;;16.13;;
69253;SDS011;56364;41.816;12.448;2023-01-08T00:39:05;39.50;;;16.63;;
69253;SDS011;56364;41.816;12.448;2023-01-08T00:41:33;33.70;;;15.38;;
69253;SDS011;56364;41.816;12.448;2023-01-08T00:44:01;34.22;;;15.13;;
69253;SDS011;56364;41.816;12.448;2023-01-08T00:46:27;37.42;;;16.42;;
69253;SDS011;56364;41.816;12.448;2023-01-08T00:48:54;33.58;;;14.80;;
69253;SDS011;56364;41.816;12.448;2023-01-08T00:51:20;33.85;;;15.88;;
69253;SDS011;56364;41.816;12.448;2023-01-08T00:53:46;35.55;;;16.58;;
69253;SDS011;56364;41.816;12.448;2023-01-08T00:56:12;34.90;;;15.68;;
69253;SDS011;56364;41.816;12.448;2023-01-08T00:58:38;31.98;;;16.17;;
69253;SDS011;56364;41.816;12.448;2023-01-08T01:03:35;31.00;;;16.45;;
69253;SDS011;56364;41.816;12.448;2023-01-08T01:06:02;43.95;;;16.88;;
69253;SDS011;56364;41.816;12.448;2023-01-08T01:08:28;35.88;;;15.25;;
69253;SDS011;56364;41.816;12.448;2023-01-08T01:10:54;30.08;;;14.85;;
69253;SDS011;56364;41.816;12.448;2023-01-08T01:13:20;36.13;;;16.85;;
69253;SDS011;56364;41.816;12.448;2023-01-08T01:15:55;36.70;;;15.90;;
69253;SDS011;56364;41.816;12.448;2023-01-08T01:18:22;36.45;;;17.27;;
69253;SDS011;56364;41.816;12.448;2023-01-08T01:20:48;35.92;;;16.83;;
69253;SDS011;56364;41.816;12.448;2023-01-08T01:23:14;38.88;;;17.20;;
69253;SDS011;56364;41.816;12.448;2023-01-08T01:25:40;38.83;;;16.48;;
69253;SDS011;56364;41.816;12.448;2023-01-08T01:28:06;39.42;;;16.55;;
69253;SDS011;56364;41.816;12.448;2023-01-08T01:30:32;38.78;;;16.42;;
69253;SDS011;56364;41.816;12.448;2023-01-08T01:32:58;34.95;;;17.90;;
69253;SDS011;56364;41.816;12.448;2023-01-08T01:35:24;32.70;;;16.88;;
69253;SDS011;56364;41.816;12.448;2023-01-08T01:37:50;34.80;;;15.80;;
69253;SDS011;56364;41.816;12.448;2023-01-08T01:40:16;36.45;;;17.27;;
69253;SDS011;56364;41.816;12.448;2023-01-08T01:42:42;37.60;;;16.50;;
69253;SDS011;56364;41.816;12.448;2023-01-08T01:45:22;36.67;;;17.00;;
69253;SDS011;56364;41.816;12.448;2023-01-08T01:47:51;34.83;;;16.85;;
69253;SDS011;56364;41.816;12.448;2023-01-08T01:50:21;35.30;;;17.45;;
69253;SDS011;56364;41.816;12.448;2023-01-08T01:55:15;34.10;;;16.83;;
69253;SDS011;56364;41.816;12.448;2023-01-08T01:57:43;39.40;;;18.05;;
69253;SDS011;56364;41.816;12.448;2023-01-08T02:00:10;41.42;;;18.80;;
69253;SDS011;56364;41.816;12.448;2023-01-08T02:02:36;36.28;;;17.35;;
69253;SDS011;56364;41.816;12.448;2023-01-08T02:05:02;39.38;;;17.58;;
69253;SDS011;56364;41.816;12.448;2023-01-08T02:07:49;36.00;;;19.25;;
69253;SDS011;56364;41.816;12.448;2023-01-08T02:10:29;40.45;;;17.45;;
69253;SDS011;56364;41.816;12.448;2023-01-08T02:13:00;40.28;;;18.95;;
69253;SDS011;56364;41.816;12.448;2023-01-08T02:15:38;34.13;;;17.48;;
69253;SDS011;56364;41.816;12.448;2023-01-08T02:18:41;38.47;;;16.45;;
69253;SDS011;56364;41.816;12.448;2023-01-08T02:21:08;37.60;;;17.55;;
69253;SDS011;56364;41.816;12.448;2023-01-08T02:23:44;40.40;;;18.73;;
69253;SDS011;56364;41.816;12.448;2023-01-08T02:31:13;42.22;;;19.40;;
69253;SDS011;56364;41.816;12.448;2023-01-08T02:33:40;41.97;;;19.35;;
69253;SDS011;56364;41.816;12.448;2023-01-08T02:38:36;46.45;;;20.35;;
69253;SDS011;56364;41.816;12.448;2023-01-08T02:41:05;37.70;;;17.25;;
69253;SDS011;56364;41.816;12.448;2023-01-08T02:43:35;45.50;;;17.85;;
69253;SDS011;56364;41.816;12.448;2023-01-08T02:46:04;45.15;;;19.00;;
69253;SDS011;56364;41.816;12.448;2023-01-08T02:51:04;43.97;;;19.92;;
69253;SDS011;56364;41.816;12.448;2023-01-08T02:53:32;37.95;;;18.55;;
69253;SDS011;56364;41.816;12.448;2023-01-08T02:56:02;43.25;;;18.65;;
69253;SDS011;56364;41.816;12.448;2023-01-08T02:58:30;35.65;;;19.23;;
69253;SDS011;56364;41.816;12.448;2023-01-08T03:01:00;40.20;;;20.20;;
69253;SDS011;56364;41.816;12.448;2023-01-08T03:03:30;38.70;;;18.95;;
69253;SDS011;56364;41.816;12.448;2023-01-08T03:08:22;41.35;;;19.38;;
69253;SDS011;56364;41.816;12.448;2023-01-08T03:10:59;41.53;;;19.38;;
69253;SDS011;56364;41.816;12.448;2023-01-08T03:13:33;54.33;;;21.23;;
69253;SDS011;56364;41.816;12.448;2023-01-08T03:16:02;44.30;;;18.55;;
69253;SDS011;56364;41.816;12.448;2023-01-08T03:18:32;46.75;;;19.67;;
69253;SDS011;56364;41.816;12.448;2023-01-08T03:21:00;41.10;;;19.65;;
69253;SDS011;56364;41.816;12.448;2023-01-08T03:23:28;44.42;;;20.02;;
69253;SDS011;56364;41.816;12.448;2023-01-08T03:25:57;46.95;;;19.10;;
69253;SDS011;56364;41.816;12.448;2023-01-08T03:28:26;43.42;;;19.65;;
69253;SDS011;56364;41.816;12.448;2023-01-08T03:30:54;42.17;;;18.40;;
69253;SDS011;56364;41.816;12.448;2023-01-08T03:33:21;38.72;;;17.80;;
69253;SDS011;56364;41.816;12.448;2023-01-08T03:35:49;33.75;;;17.30;;
69253;SDS011;56364;41.816;12.448;2023-01-08T03:38:18;38.60;;;17.90;;
69253;SDS011;56364;41.816;12.448;2023-01-08T03:40:50;37.85;;;17.50;;
69253;SDS011;56364;41.816;12.448;2023-01-08T03:43:17;42.67;;;18.77;;
69253;SDS011;56364;41.816;12.448;2023-01-08T03:45:46;40.22;;;18.90;;
69253;SDS011;56364;41.816;12.448;2023-01-08T03:48:13;43.55;;;20.23;;
69253;SDS011;56364;41.816;12.448;2023-01-08T03:53:07;32.58;;;15.80;;
69253;SDS011;56364;41.816;12.448;2023-01-08T03:55:33;27.75;;;14.40;;
69253;SDS011;56364;41.816;12.448;2023-01-08T03:58:02;29.92;;;14.85;;
69253;SDS011;56364;41.816;12.448;2023-01-08T04:00:28;29.38;;;14.27;;
69253;SDS011;56364;41.816;12.448;2023-01-08T04:02:55;36.90;;;16.63;;
69253;SDS011;56364;41.816;12.448;2023-01-08T04:05:23;38.20;;;17.98;;
69253;SDS011;56364;41.816;12.448;2023-01-08T04:07:49;38.60;;;18.30;;
69253;SDS011;56364;41.816;12.448;2023-01-08T04:10:15;39.40;;;18.65;;
69253;SDS011;56364;41.816;12.448;2023-01-08T04:12:42;41.45;;;19.05;;
69253;SDS011;56364;41.816;12.448;2023-01-08T04:15:09;45.92;;;19.30;;
69253;SDS011;56364;41.816;12.448;2023-01-08T04:17:36;44.65;;;18.40;;
69253;SDS011;56364;41.816;12.448;2023-01-08T04:20:03;37.35;;;18.92;;
69253;SDS011;56364;41.816;12.448;2023-01-08T04:22:29;43.33;;;20.67;;
69253;SDS011;56364;41.816;12.448;2023-01-08T04:24:55;41.47;;;18.38;;
69253;SDS011;56364;41.816;12.448;2023-01-08T04:27:21;43.42;;;19.13;;
69253;SDS011;56364;41.816;12.448;2023-01-08T04:29:47;43.97;;;18.17;;
69253;SDS011;56364;41.816;12.448;2023-01-08T04:32:14;39.45;;;18.48;;
69253;SDS011;56364;41.816;12.448;2023-01-08T04:34:40;43.45;;;19.08;;
69253;SDS011;56364;41.816;12.448;2023-01-08T04:37:06;45.17;;;19.42;;
69253;SDS011;56364;41.816;12.448;2023-01-08T04:39:34;37.03;;;19.23;;
69253;SDS011;56364;41.816;12.448;2023-01-08T04:42:00;37.25;;;19.23;;
69253;SDS011;56364;41.816;12.448;2023-01-08T04:44:26;37.75;;;17.98;;
69253;SDS011;56364;41.816;12.448;2023-01-08T04:46:53;36.80;;;18.92;;
69253;SDS011;56364;41.816;12.448;2023-01-08T04:49:20;40.65;;;18.60;;
69253;SDS011;56364;41.816;12.448;2023-01-08T04:51:46;41.80;;;19.27;;
69253;SDS011;56364;41.816;12.448;2023-01-08T04:54:12;40.38;;;18.38;;
69253;SDS011;56364;41.816;12.448;2023-01-08T04:56:38;38.97;;;18.67;;
69253;SDS011;56364;41.816;12.448;2023-01-08T04:59:04;40.10;;;19.58;;
69253;SDS011;56364;41.816;12.448;2023-01-08T05:01:32;36.20;;;18.90;;
69253;SDS011;56364;41.816;12.448;2023-01-08T05:04:00;41.70;;;18.02;;
69253;SDS011;56364;41.816;12.448;2023-01-08T05:06:27;39.45;;;17.60;;
69253;SDS011;56364;41.816;12.448;2023-01-08T05:08:53;46.42;;;19.63;;
69253;SDS011;56364;41.816;12.448;2023-01-08T05:11:21;45.08;;;20.40;;
69253;SDS011;56364;41.816;12.448;2023-01-08T05:13:48;44.85;;;19.73;;
69253;SDS011;56364;41.816;12.448;2023-01-08T05:16:19;38.10;;;18.90;;
69253;SDS011;56364;41.816;12.448;2023-01-08T05:18:45;39.42;;;17.92;;
69253;SDS011;56364;41.816;12.448;2023-01-08T05:21:12;38.58;;;18.35;;
69253;SDS011;56364;41.816;12.448;2023-01-08T05:23:38;35.67;;;19.48;;
69253;SDS011;56364;41.816;12.448;2023-01-08T05:26:06;37.00;;;17.63;;
69253;SDS011;56364;41.816;12.448;2023-01-08T05:28:32;44.55;;;19.27;;
69253;SDS011;56364;41.816;12.448;2023-01-08T05:33:24;38.85;;;17.45;;
69253;SDS011;56364;41.816;12.448;2023-01-08T05:35:51;41.90;;;18.17;;
69253;SDS011;56364;41.816;12.448;2023-01-08T05:38:17;36.25;;;17.95;;
69253;SDS011;56364;41.816;12.448;2023-01-08T05:40:44;37.17;;;19.15;;
69253;SDS011;56364;41.816;12.448;2023-01-08T05:43:11;40.42;;;18.80;;
69253;SDS011;56364;41.816;12.448;2023-01-08T05:45:37;44.45;;;18.13;;
69253;SDS011;56364;41.816;12.448;2023-01-08T05:48:04;37.85;;;17.58;;
69253;SDS011;56364;41.816;12.448;2023-01-08T05:50:35;35.47;;;18.00;;
69253;SDS011;56364;41.816;12.448;2023-01-08T05:53:04;42.33;;;18.50;;
69253;SDS011;56364;41.816;12.448;2023-01-08T05:55:32;37.08;;;18.88;;
69253;SDS011;56364;41.816;12.448;2023-01-08T06:00:31;37.17;;;17.88;;
69253;SDS011;56364;41.816;12.448;2023-01-08T06:02:57;42.65;;;18.05;;
69253;SDS011;56364;41.816;12.448;2023-01-08T06:05:23;39.20;;;17.13;;
69253;SDS011;56364;41.816;12.448;2023-01-08T06:07:49;40.38;;;18.42;;
69253;SDS011;56364;41.816;12.448;2023-01-08T06:10:15;34.38;;;17.17;;
69253;SDS011;56364;41.816;12.448;2023-01-08T06:12:41;35.92;;;17.25;;
69253;SDS011;56364;41.816;12.448;2023-01-08T06:15:08;38.10;;;17.70;;
69253;SDS011;56364;41.816;12.448;2023-01-08T06:17:34;38.63;;;17.25;;
69253;SDS011;56364;41.816;12.448;2023-01-08T06:20:00;36.92;;;16.65;;
69253;SDS011;56364;41.816;12.448;2023-01-08T06:22:26;40.00;;;18.70;;
69253;SDS011;56364;41.816;12.448;2023-01-08T06:24:53;40.60;;;18.63;;
69253;SDS011;56364;41.816;12.448;2023-01-08T06:27:19;33.58;;;17.15;;
69253;SDS011;56364;41.816;12.448;2023-01-08T06:29:45;37.45;;;17.13;;
69253;SDS011;56364;41.816;12.448;2023-01-08T06:32:11;36.17;;;16.88;;
69253;SDS011;56364;41.816;12.448;2023-01-08T06:34:37;34.28;;;17.10;;
69253;SDS011;56364;41.816;12.448;2023-01-08T06:37:03;33.30;;;16.15;;
69253;SDS011;56364;41.816;12.448;2023-01-08T06:39:29;40.67;;;19.15;;
69253;SDS011;56364;41.816;12.448;2023-01-08T06:41:55;36.22;;;16.33;;
69253;SDS011;56364;41.816;12.448;2023-01-08T06:44:21;37.17;;;16.55;;
69253;SDS011;56364;41.816;12.448;2023-01-08T06:46:47;30.48;;;16.38;;
69253;SDS011;56364;41.816;12.448;2023-01-08T06:49:13;38.88;;;15.57;;
69253;SDS011;56364;41.816;12.448;2023-01-08T06:51:41;35.60;;;16.10;;
69253;SDS011;56364;41.816;12.448;2023-01-08T06:54:07;31.23;;;14.90;;
69253;SDS011;56364;41.816;12.448;2023-01-08T06:56:33;30.77;;;15.25;;
69253;SDS011;56364;41.816;12.448;2023-01-08T06:58:59;34.60;;;16.58;;
69253;SDS011;56364;41.816;12.448;2023-01-08T07:01:25;34.88;;;15.10;;
69253;SDS011;56364;41.816;12.448;2023-01-08T07:03:51;28.05;;;14.20;;
69253;SDS011;56364;41.816;12.448;2023-01-08T07:06:18;26.60;;;14.25;;
69253;SDS011;56364;41.816;12.448;2023-01-08T07:08:45;29.42;;;13.20;;
69253;SDS011;56364;41.816;12.448;2023-01-08T07:11:11;32.92;;;14.20;;
69253;SDS011;56364;41.816;12.448;2023-01-08T07:13:38;35.10;;;16.08;;
69253;SDS011;56364;41.816;12.448;2023-01-08T07:16:05;32.28;;;14.85;;
69253;SDS011;56364;41.816;12.448;2023-01-08T07:18:31;33.90;;;15.68;;
69253;SDS011;56364;41.816;12.448;2023-01-08T07:20:57;29.33;;;14.90;;
69253;SDS011;56364;41.816;12.448;2023-01-08T07:23:23;33.00;;;15.73;;
69253;SDS011;56364;41.816;12.448;2023-01-08T07:25:49;31.48;;;14.88;;
69253;SDS011;56364;41.816;12.448;2023-01-08T07:28:15;36.90;;;15.25;;
69253;SDS011;56364;41.816;12.448;2023-01-08T07:30:41;36.47;;;15.75;;
69253;SDS011;56364;41.816;12.448;2023-01-08T07:33:08;30.02;;;13.68;;
69253;SDS011;56364;41.816;12.448;2023-01-08T07:35:34;34.33;;;15.82;;
69253;SDS011;56364;41.816;12.448;2023-01-08T07:38:02;32.60;;;14.52;;
69253;SDS011;56364;41.816;12.448;2023-01-08T07:40:28;31.40;;;14.88;;
69253;SDS011;56364;41.816;12.448;2023-01-08T07:42:56;25.35;;;13.05;;
69253;SDS011;56364;41.816;12.448;2023-01-08T07:45:25;21.42;;;12.00;;
69253;SDS011;56364;41.816;12.448;2023-01-08T07:47:51;24.65;;;12.07;;
69253;SDS011;56364;41.816;12.448;2023-01-08T07:50:17;23.80;;;13.57;;
69253;SDS011;56364;41.816;12.448;2023-01-08T07:52:43;26.63;;;12.65;;
69253;SDS011;56364;41.816;12.448;2023-01-08T07:55:09;25.35;;;12.07;;
69253;SDS011;56364;41.816;12.448;2023-01-08T07:57:35;24.08;;;11.55;;
69253;SDS011;56364;41.816;12.448;2023-01-08T08:00:04;25.15;;;11.32;;
69253;SDS011;56364;41.816;12.448;2023-01-08T08:04:57;23.65;;;10.50;;
69253;SDS011;56364;41.816;12.448;2023-01-08T08:07:23;21.50;;;10.98;;
69253;SDS011;56364;41.816;12.448;2023-01-08T08:09:49;22.50;;;11.75;;
69253;SDS011;56364;41.816;12.448;2023-01-08T08:12:15;28.52;;;10.38;;
69253;SDS011;56364;41.816;12.448;2023-01-08T08:14:41;19.92;;;11.23;;
69253;SDS011;56364;41.816;12.448;2023-01-08T08:17:07;23.50;;;10.38;;
69253;SDS011;56364;41.816;12.448;2023-01-08T08:19:33;20.15;;;10.07;;
69253;SDS011;56364;41.816;12.448;2023-01-08T08:21:59;23.02;;;11.13;;
69253;SDS011;56364;41.816;12.448;2023-01-08T08:24:25;22.92;;;12.00;;
69253;SDS011;56364;41.816;12.448;2023-01-08T08:26:51;24.98;;;11.63;;
69253;SDS011;56364;41.816;12.448;2023-01-08T08:31:44;25.00;;;11.32;;
69253;SDS011;56364;41.816;12.448;2023-01-08T08:34:10;25.98;;;11.63;;
69253;SDS011;56364;41.816;12.448;2023-01-08T08:36:36;25.38;;;13.05;;
69253;SDS011;56364;41.816;12.448;2023-01-08T08:39:02;25.95;;;11.35;;
69253;SDS011;56364;41.816;12.448;2023-01-08T08:41:28;23.63;;;11.00;;
69253;SDS011;56364;41.816;12.448;2023-01-08T08:43:54;28.35;;;10.90;;
69253;SDS011;56364;41.816;12.448;2023-01-08T08:46:20;21.30;;;9.57;;
69253;SDS011;56364;41.816;12.448;2023-01-08T08:48:46;24.08;;;9.65;;
69253;SDS011;56364;41.816;12.448;2023-01-08T08:53:50;19.27;;;8.50;;
69253;SDS011;56364;41.816;12.448;2023-01-08T08:56:16;20.65;;;8.52;;
69253;SDS011;56364;41.816;12.448;2023-01-08T08:58:42;19.23;;;8.05;;
69253;SDS011;56364;41.816;12.448;2023-01-08T09:01:09;19.83;;;8.60;;
69253;SDS011;56364;41.816;12.448;2023-01-08T09:06:01;15.32;;;6.65;;
69253;SDS011;56364;41.816;12.448;2023-01-08T09:08:28;13.02;;;6.30;;
69253;SDS011;56364;41.816;12.448;2023-01-08T09:10:54;17.40;;;6.88;;
69253;SDS011;56364;41.816;12.448;2023-01-08T09:13:20;14.88;;;7.32;;
69253;SDS011;56364;41.816;12.448;2023-01-08T09:15:46;15.05;;;7.13;;
69253;SDS011;56364;41.816;12.448;2023-01-08T09:18:12;17.52;;;7.00;;
69253;SDS011;56364;41.816;12.448;2023-01-08T09:20:38;13.27;;;6.40;;
69253;SDS011;56364;41.816;12.448;2023-01-08T09:23:04;16.35;;;6.55;;
69253;SDS011;56364;41.816;12.448;2023-01-08T09:25:31;17.70;;;6.97;;
69253;SDS011;56364;41.816;12.448;2023-01-08T09:27:57;17.85;;;7.28;;
69253;SDS011;56364;41.816;12.448;2023-01-08T09:30:24;13.77;;;7.43;;
69253;SDS011;56364;41.816;12.448;2023-01-08T09:32:50;19.65;;;8.25;;
69253;SDS011;56364;41.816;12.448;2023-01-08T09:35:16;18.90;;;7.55;;
69253;SDS011;56364;41.816;12.448;2023-01-08T09:37:42;16.65;;;7.32;;
69253;SDS011;56364;41.816;12.448;2023-01-08T09:40:09;13.60;;;7.57;;
69253;SDS011;56364;41.816;12.448;2023-01-08T09:42:39;16.48;;;7.43;;
69253;SDS011;56364;41.816;12.448;2023-01-08T09:45:05;17.45;;;7.00;;
69253;SDS011;56364;41.816;12.448;2023-01-08T09:47:36;11.48;;;5.07;;
69253;SDS011;56364;41.816;12.448;2023-01-08T09:50:05;8.65;;;4.85;;
69253;SDS011;56364;41.816;12.448;2023-01-08T09:52:33;8.77;;;3.35;;
69253;SDS011;56364;41.816;12.448;2023-01-08T09:55:00;13.88;;;4.28;;
69253;SDS011;56364;41.816;12.448;2023-01-08T09:57:26;10.07;;;3.47;;
69253;SDS011;56364;41.816;12.448;2023-01-08T09:59:56;7.57;;;3.45;;
69253;SDS011;56364;41.816;12.448;2023-01-08T10:02:24;7.32;;;3.20;;
69253;SDS011;56364;41.816;12.448;2023-01-08T10:04:53;6.38;;;2.60;;
69253;SDS011;56364;41.816;12.448;2023-01-08T10:07:20;8.43;;;3.40;;
69253;SDS011;56364;41.816;12.448;2023-01-08T10:09:47;7.78;;;2.67;;
69253;SDS011;56364;41.816;12.448;2023-01-08T10:12:14;5.80;;;2.65;;
69253;SDS011;56364;41.816;12.448;2023-01-08T10:14:41;10.50;;;2.45;;
69253;SDS011;56364;41.816;12.448;2023-01-08T10:19:39;5.15;;;2.40;;
69253;SDS011;56364;41.816;12.448;2023-01-08T10:22:12;6.65;;;2.60;;
69253;SDS011;56364;41.816;12.448;2023-01-08T10:24:39;8.50;;;3.15;;
69253;SDS011;56364;41.816;12.448;2023-01-08T10:27:08;10.02;;;2.90;;
69253;SDS011;56364;41.816;12.448;2023-01-08T10:29:34;6.43;;;2.63;;
69253;SDS011;56364;41.816;12.448;2023-01-08T10:32:17;9.10;;;2.50;;
69253;SDS011;56364;41.816;12.448;2023-01-08T10:34:48;6.25;;;2.50;;
69253;SDS011;56364;41.816;12.448;2023-01-08T10:39:54;6.68;;;2.80;;
69253;SDS011;56364;41.816;12.448;2023-01-08T10:42:21;12.50;;;3.22;;
69253;SDS011;56364;41.816;12.448;2023-01-08T10:44:56;7.30;;;3.00;;
69253;SDS011;56364;41.816;12.448;2023-01-08T10:47:24;6.13;;;2.78;;
69253;SDS011;56364;41.816;12.448;2023-01-08T10:49:50;7.57;;;2.60;;
69253;SDS011;56364;41.816;12.448;2023-01-08T10:54:42;5.57;;;2.50;;
69253;SDS011;56364;41.816;12.448;2023-01-08T10:57:22;11.77;;;2.53;;
69253;SDS011;56364;41.816;12.448;2023-01-08T10:59:49;7.80;;;3.10;;
69253;SDS011;56364;41.816;12.448;2023-01-08T11:02:28;4.57;;;2.03;;
69253;SDS011;56364;41.816;12.448;2023-01-08T11:04:55;6.97;;;2.50;;
69253;SDS011;56364;41.816;12.448;2023-01-08T11:09:47;5.10;;;2.80;;
69253;SDS011;56364;41.816;12.448;2023-01-08T11:12:47;7.40;;;2.72;;
69253;SDS011;56364;41.816;12.448;2023-01-08T11:15:19;5.38;;;2.40;;
69253;SDS011;56364;41.816;12.448;2023-01-08T11:17:50;6.55;;;2.50;;
69253;SDS011;56364;41.816;12.448;2023-01-08T11:22:42;9.13;;;2.55;;
69253;SDS011;56364;41.816;12.448;2023-01-08T11:25:08;5.60;;;2.40;;
69253;SDS011;56364;41.816;12.448;2023-01-08T11:27:38;5.70;;;2.67;;
69253;SDS011;56364;41.816;12.448;2023-01-08T11:30:13;6.68;;;2.38;;
69253;SDS011;56364;41.816;12.448;2023-01-08T11:37:39;8.68;;;2.65;;
69253;SDS011;56364;41.816;12.448;2023-01-08T11:40:12;4.32;;;2.30;;
69253;SDS011;56364;41.816;12.448;2023-01-08T11:45:28;5.70;;;2.53;;
69253;SDS011;56364;41.816;12.448;2023-01-08T11:50:39;4.40;;;2.13;;
69253;SDS011;56364;41.816;12.448;2023-01-08T11:56:38;4.32;;;2.00;;
69253;SDS011;56364;41.816;12.448;2023-01-08T12:06:27;4.00;;;2.38;;
69253;SDS011;56364;41.816;12.448;2023-01-08T12:11:52;4.13;;;2.17;;
69253;SDS011;56364;41.816;12.448;2023-01-08T12:17:14;5.47;;;1.90;;
69253;SDS011;56364;41.816;12.448;2023-01-08T12:19:53;4.65;;;1.73;;
69253;SDS011;56364;41.816;12.448;2023-01-08T12:32:37;10.15;;;1.88;;
69253;SDS011;56364;41.816;12.448;2023-01-08T12:35:21;4.05;;;1.88;;
69253;SDS011;56364;41.816;12.448;2023-01-08T12:37:51;6.28;;;1.77;;
69253;SDS011;56364;41.816;12.448;2023-01-08T12:40:21;2.63;;;1.48;;
69253;SDS011;56364;41.816;12.448;2023-01-08T12:42:48;3.95;;;1.90;;
69253;SDS011;56364;41.816;12.448;2023-01-08T12:45:25;3.80;;;0.95;;
69253;SDS011;56364;41.816;12.448;2023-01-08T12:48:00;1.65;;;0.93;;
69253;SDS011;56364;41.816;12.448;2023-01-08T12:50:33;1.17;;;0.57;;
69253;SDS011;56364;41.816;12.448;2023-01-08T12:53:08;2.13;;;0.80;;
69253;SDS011;56364;41.816;12.448;2023-01-08T12:59:02;3.65;;;0.77;;
69253;SDS011;56364;41.816;12.448;2023-01-08T13:01:34;1.70;;;0.80;;
69253;SDS011;56364;41.816;12.448;2023-01-08T13:04:02;2.25;;;0.80;;
69253;SDS011;56364;41.816;12.448;2023-01-08T13:06:30;2.08;;;1.20;;
69253;SDS011;56364;41.816;12.448;2023-01-08T13:08:56;2.50;;;0.75;;
69253;SDS011;56364;41.816;12.448;2023-01-08T13:11:32;1.65;;;0.80;;
69253;SDS011;56364;41.816;12.448;2023-01-08T13:14:05;1.05;;;0.68;;
69253;SDS011;56364;41.816;12.448;2023-01-08T13:16:37;1.25;;;0.80;;
69253;SDS011;56364;41.816;12.448;2023-01-08T13:19:04;1.55;;;0.80;;
69253;SDS011;56364;41.816;12.448;2023-01-08T13:26:26;0.82;;;0.60;;
69253;SDS011;56364;41.816;12.448;2023-01-08T13:28:54;2.15;;;0.70;;
69253;SDS011;56364;41.816;12.448;2023-01-08T13:31:37;1.40;;;0.60;;
69253;SDS011;56364;41.816;12.448;2023-01-08T13:34:33;2.17;;;0.70;;
69253;SDS011;56364;41.816;12.448;2023-01-08T13:37:00;1.20;;;0.77;;
69253;SDS011;56364;41.816;12.448;2023-01-08T13:39:32;3.47;;;0.70;;
69253;SDS011;56364;41.816;12.448;2023-01-08T13:42:02;2.45;;;0.60;;
69253;SDS011;56364;41.816;12.448;2023-01-08T13:47:01;3.08;;;0.82;;
69253;SDS011;56364;41.816;12.448;2023-01-08T13:49:40;2.60;;;0.63;;
69253;SDS011;56364;41.816;12.448;2023-01-08T13:54:52;1.77;;;0.93;;
69253;SDS011;56364;41.816;12.448;2023-01-08T13:57:18;0.65;;;0.60;;
69253;SDS011;56364;41.816;12.448;2023-01-08T14:02:21;2.92;;;0.90;;
69253;SDS011;56364;41.816;12.448;2023-01-08T14:04:51;2.03;;;0.50;;
69253;SDS011;56364;41.816;12.448;2023-01-08T14:07:17;1.98;;;0.80;;
69253;SDS011;56364;41.816;12.448;2023-01-08T14:12:19;2.22;;;0.80;;
69253;SDS011;56364;41.816;12.448;2023-01-08T14:14:53;1.50;;;0.85;;
69253;SDS011;56364;41.816;12.448;2023-01-08T14:17:20;2.15;;;1.10;;
69253;SDS011;56364;41.816;12.448;2023-01-08T14:19:47;3.40;;;0.73;;
69253;SDS011;56364;41.816;12.448;2023-01-08T14:22:17;1.23;;;0.80;;
69253;SDS011;56364;41.816;12.448;2023-01-08T14:24:44;0.98;;;0.55;;
69253;SDS011;56364;41.816;12.448;2023-01-08T14:27:21;1.70;;;0.60;;
69253;SDS011;56364;41.816;12.448;2023-01-08T14:29:47;2.83;;;1.02;;
69253;SDS011;56364;41.816;12.448;2023-01-08T14:34:39;4.78;;;0.65;;
69253;SDS011;56364;41.816;12.448;2023-01-08T14:37:10;1.33;;;0.80;;
69253;SDS011;56364;41.816;12.448;2023-01-08T14:39:37;1.65;;;0.63;;
69253;SDS011;56364;41.816;12.448;2023-01-08T14:44:58;1.42;;;0.52;;
69253;SDS011;56364;41.816;12.448;2023-01-08T14:47:27;1.02;;;0.68;;
69253;SDS011;56364;41.816;12.448;2023-01-08T14:49:54;1.30;;;0.80;;
69253;SDS011;56364;41.816;12.448;2023-01-08T14:54:47;2.38;;;0.80;;
69253;SDS011;56364;41.816;12.448;2023-01-08T14:57:14;1.38;;;0.88;;
69253;SDS011;56364;41.816;12.448;2023-01-08T14:59:46;1.35;;;0.80;;
69253;SDS011;56364;41.816;12.448;2023-01-08T15:02:34;1.65;;;0.82;;
69253;SDS011;56364;41.816;12.448;2023-01-08T15:05:47;1.10;;;0.80;;
69253;SDS011;56364;41.816;12.448;2023-01-08T15:10:33;2.22;;;0.80;;
69253;SDS011;56364;41.816;12.448;2023-01-08T15:18:28;4.18;;;0.93;;
69253;SDS011;56364;41.816;12.448;2023-01-08T15:20:55;3.28;;;0.82;;
69253;SDS011;56364;41.816;12.448;2023-01-08T15:23:45;1.48;;;0.88;;
69253;SDS011;56364;41.816;12.448;2023-01-08T15:26:09;3.45;;;0.90;;
69253;SDS011;56364;41.816;12.448;2023-01-08T15:28:35;0.73;;;0.73;;
69253;SDS011;56364;41.816;12.448;2023-01-08T15:33:27;1.92;;;0.93;;
69253;SDS011;56364;41.816;12.448;2023-01-08T15:38:19;1.73;;;0.88;;
69253;SDS011;56364;41.816;12.448;2023-01-08T15:40:48;3.38;;;1.13;;
69253;SDS011;56364;41.816;12.448;2023-01-08T15:43:15;4.65;;;1.00;;
69253;SDS011;56364;41.816;12.448;2023-01-08T15:45:45;2.20;;;0.90;;
69253;SDS011;56364;41.816;12.448;2023-01-08T15:48:14;1.67;;;0.90;;
69253;SDS011;56364;41.816;12.448;2023-01-08T15:50:41;1.92;;;0.90;;
69253;SDS011;56364;41.816;12.448;2023-01-08T15:53:12;2.28;;;0.70;;
69253;SDS011;56364;41.816;12.448;2023-01-08T15:55:39;2.63;;;0.80;;
69253;SDS011;56364;41.816;12.448;2023-01-08T15:58:08;2.08;;;0.80;;
69253;SDS011;56364;41.816;12.448;2023-01-08T16:00:35;4.63;;;1.20;;
69253;SDS011;56364;41.816;12.448;2023-01-08T16:03:02;1.20;;;0.80;;
69253;SDS011;56364;41.816;12.448;2023-01-08T16:05:34;2.78;;;1.08;;
69253;SDS011;56364;41.816;12.448;2023-01-08T16:10:27;4.10;;;1.35;;
69253;SDS011;56364;41.816;12.448;2023-01-08T16:15:19;2.08;;;1.00;;
69253;SDS011;56364;41.816;12.448;2023-01-08T16:17:47;2.03;;;0.77;;
69253;SDS011;56364;41.816;12.448;2023-01-08T16:20:15;1.33;;;0.88;;
69253;SDS011;56364;41.816;12.448;2023-01-08T16:22:42;2.08;;;1.10;;
69253;SDS011;56364;41.816;12.448;2023-01-08T16:25:09;6.20;;;1.38;;
69253;SDS011;56364;41.816;12.448;2023-01-08T16:27:35;8.43;;;1.35;;
69253;SDS011;56364;41.816;12.448;2023-01-08T16:30:07;2.25;;;1.33;;
69253;SDS011;56364;41.816;12.448;2023-01-08T16:32:34;3.22;;;1.42;;